createdAt,value
2023-01-27T00:00:35.000Z,4.8
2023-01-27T00:01:50.000Z,8.8
2023-01-27T00:03:06.000Z,14.2
2023-01-27T00:04:23.000Z,4.4
2023-01-27T00:06:55.000Z,7.2
2023-01-27T00:08:10.000Z,7.1
2023-01-27T00:09:25.000Z,7.8
2023-01-27T00:10:42.000Z,5.6
2023-01-27T00:11:58.000Z,8.4
2023-01-27T00:13:14.000Z,9
2023-01-27T00:14:30.000Z,6.5
2023-01-27T00:15:46.000Z,6.1
2023-01-27T00:17:03.000Z,7.5
2023-01-27T00:18:19.000Z,6.4
2023-01-27T00:19:35.000Z,9.1
2023-01-27T00:20:51.000Z,8
2023-01-27T00:22:06.000Z,6.4
2023-01-27T00:23:22.000Z,8.9
2023-01-27T00:24:38.000Z,9.1
2023-01-27T00:25:54.000Z,10.1
2023-01-27T00:27:10.000Z,9.5
2023-01-27T00:28:26.000Z,7.8
2023-01-27T00:29:43.000Z,10.7
2023-01-27T00:32:15.000Z,8.6
2023-01-27T00:33:31.000Z,9.7
2023-01-27T00:34:47.000Z,8.7
2023-01-27T00:36:03.000Z,8.7
2023-01-27T00:37:20.000Z,11.9
2023-01-27T00:38:36.000Z,11
2023-01-27T00:39:51.000Z,8.8
2023-01-27T00:41:07.000Z,9.8
2023-01-27T00:42:23.000Z,10.9
2023-01-27T00:43:40.000Z,8.4
2023-01-27T00:44:56.000Z,7.6
2023-01-27T00:46:12.000Z,7.3
2023-01-27T00:47:28.000Z,8
2023-01-27T00:48:44.000Z,7.7
2023-01-27T00:50:00.000Z,8.8
2023-01-27T00:51:15.000Z,7.7
2023-01-27T00:52:30.000Z,8.3
2023-01-27T00:53:45.000Z,9.3
2023-01-27T00:55:01.000Z,6.8
2023-01-27T00:56:18.000Z,7.1
2023-01-27T00:57:34.000Z,7.3
2023-01-27T00:58:50.000Z,5.5
2023-01-27T01:00:06.000Z,8
2023-01-27T01:01:22.000Z,6.8
2023-01-27T01:02:39.000Z,7.2
2023-01-27T01:03:55.000Z,7.1
2023-01-27T01:05:11.000Z,8
2023-01-27T01:06:27.000Z,8.6
2023-01-27T01:07:43.000Z,7.8
2023-01-27T01:10:16.000Z,7.1
2023-01-27T01:11:31.000Z,5.5
2023-01-27T01:12:47.000Z,6.5
2023-01-27T01:14:03.000Z,6.8
2023-01-27T01:15:20.000Z,6.2
2023-01-27T01:16:36.000Z,8.1
2023-01-27T01:17:52.000Z,8.1
2023-01-27T01:19:08.000Z,6.7
2023-01-27T01:20:23.000Z,5.6
2023-01-27T01:21:39.000Z,4.4
2023-01-27T01:22:55.000Z,5.9
2023-01-27T01:24:11.000Z,6.4
2023-01-27T01:25:26.000Z,4.1
2023-01-27T01:26:41.000Z,6.8
2023-01-27T01:27:58.000Z,6.3
2023-01-27T01:29:14.000Z,6.5
2023-01-27T01:30:30.000Z,5.1
2023-01-27T01:31:46.000Z,5.6
2023-01-27T01:33:02.000Z,7.3
2023-01-27T01:35:35.000Z,6
2023-01-27T01:36:51.000Z,5.5
2023-01-27T01:38:07.000Z,6.8
2023-01-27T01:39:23.000Z,5.3
2023-01-27T01:40:40.000Z,6.8
2023-01-27T01:41:56.000Z,7.3
2023-01-27T01:43:11.000Z,6.8
2023-01-27T01:44:27.000Z,7.2
2023-01-27T01:45:43.000Z,7
2023-01-27T01:48:16.000Z,6.3
2023-01-27T01:49:31.000Z,6.7
2023-01-27T01:50:46.000Z,8.3
2023-01-27T01:52:02.000Z,6.3
2023-01-27T01:53:19.000Z,5.1
2023-01-27T01:54:35.000Z,5.8
2023-01-27T01:55:51.000Z,5.8
2023-01-27T01:57:07.000Z,6.4
2023-01-27T01:58:23.000Z,6.6
2023-01-27T01:59:40.000Z,6.9
2023-01-27T02:00:56.000Z,5.4
2023-01-27T02:02:12.000Z,7.9
2023-01-27T02:03:27.000Z,6
2023-01-27T02:04:42.000Z,8
2023-01-27T02:05:59.000Z,7.3
2023-01-27T02:07:15.000Z,6.3
2023-01-27T02:08:31.000Z,4
2023-01-27T02:09:47.000Z,6.5
2023-01-27T02:11:03.000Z,6.2
2023-01-27T02:13:36.000Z,7.1
2023-01-27T02:14:52.000Z,6.8
2023-01-27T02:16:08.000Z,11.6
2023-01-27T02:17:24.000Z,5.4
2023-01-27T02:18:40.000Z,7.4
2023-01-27T02:19:57.000Z,12
2023-01-27T02:21:12.000Z,6.8
2023-01-27T02:22:28.000Z,7
2023-01-27T02:23:44.000Z,7.4
2023-01-27T02:25:00.000Z,5.9
2023-01-27T02:26:17.000Z,12.2
2023-01-27T02:27:33.000Z,10.8
2023-01-27T02:28:49.000Z,6.3
2023-01-27T02:30:05.000Z,7.1
2023-01-27T02:31:20.000Z,6.2
2023-01-27T02:32:36.000Z,8.5
2023-01-27T02:33:51.000Z,9.7
2023-01-27T02:35:06.000Z,7.5
2023-01-27T02:36:22.000Z,6.6
2023-01-27T02:37:38.000Z,5.9
2023-01-27T02:38:55.000Z,7.6
2023-01-27T02:40:11.000Z,9.4
2023-01-27T02:41:27.000Z,9
2023-01-27T02:42:43.000Z,8
2023-01-27T02:43:59.000Z,5
2023-01-27T02:45:16.000Z,7
2023-01-27T02:46:32.000Z,7.6
2023-01-27T02:47:48.000Z,8.7
2023-01-27T02:49:04.000Z,7.7
2023-01-27T02:51:37.000Z,6.8
2023-01-27T02:52:52.000Z,7.7
2023-01-27T02:54:08.000Z,6.1
2023-01-27T02:55:24.000Z,7
2023-01-27T02:56:40.000Z,9.8
2023-01-27T02:59:13.000Z,9.1
2023-01-27T03:00:29.000Z,9.3
2023-01-27T03:01:45.000Z,5.4
2023-01-27T03:04:18.000Z,6.9
2023-01-27T03:05:33.000Z,6.7
2023-01-27T03:06:48.000Z,8.8
2023-01-27T03:08:04.000Z,6.7
2023-01-27T03:09:20.000Z,8.8
2023-01-27T03:10:37.000Z,6.5
2023-01-27T03:11:53.000Z,6.7
2023-01-27T03:13:09.000Z,7.5
2023-01-27T03:14:25.000Z,8.7
2023-01-27T03:16:58.000Z,7.7
2023-01-27T03:18:14.000Z,7.5
2023-01-27T03:19:30.000Z,6.9
2023-01-27T03:20:45.000Z,7.3
2023-01-27T03:22:01.000Z,6.9
2023-01-27T03:23:18.000Z,6.1
2023-01-27T03:24:34.000Z,6
2023-01-27T03:25:50.000Z,6.2
2023-01-27T03:27:06.000Z,9.1
2023-01-27T03:29:39.000Z,6.6
2023-01-27T03:30:54.000Z,6.7
2023-01-27T03:32:09.000Z,6.8
2023-01-27T03:33:25.000Z,6.4
2023-01-27T03:34:41.000Z,5.9
2023-01-27T03:35:58.000Z,6
2023-01-27T03:37:14.000Z,7.9
2023-01-27T03:38:30.000Z,6.1
2023-01-27T03:39:46.000Z,6.5
2023-01-27T03:42:18.000Z,5.8
2023-01-27T03:43:35.000Z,6.4
2023-01-27T03:44:51.000Z,6.5
2023-01-27T03:46:07.000Z,6.4
2023-01-27T03:47:23.000Z,6.4
2023-01-27T03:48:38.000Z,5.8
2023-01-27T03:49:55.000Z,6
2023-01-27T03:51:11.000Z,6.3
2023-01-27T03:52:27.000Z,5.1
2023-01-27T03:54:59.000Z,6
2023-01-27T03:56:16.000Z,5.8
2023-01-27T03:57:32.000Z,7.2
2023-01-27T03:58:48.000Z,6
2023-01-27T04:00:04.000Z,5.5
2023-01-27T04:01:20.000Z,5.1
2023-01-27T04:02:37.000Z,7.1
2023-01-27T04:03:53.000Z,4.7
2023-01-27T04:05:08.000Z,4.4
2023-01-27T04:07:40.000Z,5
2023-01-27T04:08:57.000Z,6
2023-01-27T04:10:13.000Z,6.6
2023-01-27T04:11:29.000Z,4.2
2023-01-27T04:12:45.000Z,4
2023-01-27T04:14:01.000Z,5.5
2023-01-27T04:15:18.000Z,5.5
2023-01-27T04:16:33.000Z,4.2
2023-01-27T04:17:48.000Z,4.8
2023-01-27T04:19:04.000Z,6.4
2023-01-27T04:20:20.000Z,3.3
2023-01-27T04:21:37.000Z,4.8
2023-01-27T04:22:53.000Z,6
2023-01-27T04:24:08.000Z,5.5
2023-01-27T04:25:23.000Z,3.7
2023-01-27T04:26:39.000Z,3.2
2023-01-27T04:27:56.000Z,3.5
2023-01-27T04:29:12.000Z,4
2023-01-27T04:30:28.000Z,4.6
2023-01-27T04:31:44.000Z,3.5
2023-01-27T04:33:00.000Z,3.9
2023-01-27T04:34:17.000Z,3.1
2023-01-27T04:35:33.000Z,3.2
2023-01-27T04:36:49.000Z,3.8
2023-01-27T04:38:05.000Z,3.3
2023-01-27T04:39:21.000Z,3.9
2023-01-27T04:40:37.000Z,4.8
2023-01-27T04:41:52.000Z,4.9
2023-01-27T04:43:08.000Z,4.2
2023-01-27T04:44:24.000Z,3.4
2023-01-27T04:45:40.000Z,3.5
2023-01-27T04:46:57.000Z,3.7
2023-01-27T04:48:13.000Z,3.3
2023-01-27T04:49:29.000Z,4.2
2023-01-27T04:50:45.000Z,5.5
2023-01-27T04:52:01.000Z,3.8
2023-01-27T04:53:18.000Z,6
2023-01-27T04:54:33.000Z,3.5
2023-01-27T04:55:48.000Z,3.9
2023-01-27T04:57:04.000Z,2.8
2023-01-27T04:58:20.000Z,3.3
2023-01-27T04:59:37.000Z,3.5
2023-01-27T05:00:53.000Z,4.1
2023-01-27T05:02:09.000Z,3.3
2023-01-27T05:03:25.000Z,2.8
2023-01-27T05:04:41.000Z,3.3
2023-01-27T05:05:57.000Z,3.3
2023-01-27T05:07:14.000Z,2.4
2023-01-27T05:11:02.000Z,2.6
2023-01-27T05:12:17.000Z,2.7
2023-01-27T05:13:33.000Z,3.1
2023-01-27T05:14:49.000Z,2.5
2023-01-27T05:16:05.000Z,3.1
2023-01-27T05:17:21.000Z,3.5
2023-01-27T05:18:37.000Z,2.8
2023-01-27T05:19:54.000Z,2.2
2023-01-27T05:21:10.000Z,4
2023-01-27T05:22:26.000Z,2.7
2023-01-27T05:23:42.000Z,2.7
2023-01-27T05:24:58.000Z,2.1
2023-01-27T05:26:14.000Z,2.9
2023-01-27T05:27:29.000Z,2.4
2023-01-27T05:28:45.000Z,2.7
2023-01-27T05:30:01.000Z,2.5
2023-01-27T05:32:34.000Z,2.2
2023-01-27T05:33:50.000Z,2.1
2023-01-27T05:35:06.000Z,4.6
2023-01-27T05:36:22.000Z,2.7
2023-01-27T05:37:38.000Z,2.4
2023-01-27T05:38:55.000Z,2.4
2023-01-27T05:40:11.000Z,3.1
2023-01-27T05:41:27.000Z,2.5
2023-01-27T05:42:43.000Z,2.2
2023-01-27T05:43:58.000Z,2.8
2023-01-27T05:45:15.000Z,3
2023-01-27T05:46:31.000Z,1.9
2023-01-27T05:49:03.000Z,2.4
2023-01-27T05:50:18.000Z,2.3
2023-01-27T05:51:34.000Z,2.7
2023-01-27T05:52:50.000Z,4.1
2023-01-27T05:54:06.000Z,2.8
2023-01-27T05:55:22.000Z,2.2
2023-01-27T05:56:38.000Z,3.1
2023-01-27T05:57:55.000Z,2.3
2023-01-27T05:59:11.000Z,4.4
2023-01-27T06:00:27.000Z,2
2023-01-27T06:01:43.000Z,3.8
2023-01-27T06:02:59.000Z,2.3
2023-01-27T06:04:15.000Z,2
2023-01-27T06:05:30.000Z,2.4
2023-01-27T06:06:46.000Z,2.4
2023-01-27T06:08:02.000Z,2.2
2023-01-27T06:09:18.000Z,2.3
2023-01-27T06:10:35.000Z,2.3
2023-01-27T06:11:51.000Z,4
2023-01-27T06:14:23.000Z,2.7
2023-01-27T06:15:39.000Z,2.6
2023-01-27T06:16:56.000Z,2.6
2023-01-27T06:18:12.000Z,3.5
2023-01-27T06:20:44.000Z,3.5
2023-01-27T06:21:59.000Z,4.2
2023-01-27T06:23:15.045Z,4.4
2023-01-27T06:24:31.000Z,2.9
2023-01-27T06:27:03.000Z,3.3
2023-01-27T06:28:19.000Z,4.1
2023-01-27T06:29:36.000Z,3.6
2023-01-27T06:30:52.000Z,3.9
2023-01-27T06:32:08.000Z,5
2023-01-27T06:33:24.000Z,3.3
2023-01-27T06:34:40.000Z,5.6
2023-01-27T06:35:56.000Z,3.7
2023-01-27T06:37:13.000Z,3
2023-01-27T06:38:29.000Z,3.5
2023-01-27T06:39:44.000Z,2.8
2023-01-27T06:41:00.000Z,3.5
2023-01-27T06:42:16.000Z,6.8
2023-01-27T06:43:33.000Z,2.7
2023-01-27T06:44:49.000Z,3.2
2023-01-27T06:46:05.000Z,3.1
2023-01-27T06:47:21.000Z,2.5
2023-01-27T06:48:37.000Z,3.5
2023-01-27T06:49:53.000Z,2.8
2023-01-27T06:51:08.000Z,2.8
2023-01-27T06:52:24.000Z,6.2
2023-01-27T06:53:40.000Z,3.8
2023-01-27T06:54:56.000Z,2.7
2023-01-27T06:56:12.000Z,2.7
2023-01-27T06:57:27.000Z,7
2023-01-27T06:58:43.000Z,3.3
2023-01-27T06:59:59.000Z,2.4
2023-01-27T07:01:15.000Z,2.6
2023-01-27T07:02:32.000Z,2.7
2023-01-27T07:05:04.000Z,3.7
2023-01-27T07:06:20.000Z,2.7
2023-01-27T07:07:36.000Z,2.5
2023-01-27T07:08:53.000Z,3.2
2023-01-27T07:10:09.000Z,3.3
2023-01-27T07:11:25.000Z,2.1
2023-01-27T07:12:41.000Z,2.7
2023-01-27T07:13:56.000Z,2.8
2023-01-27T07:15:13.000Z,3.9
2023-01-27T07:16:29.000Z,4.5
2023-01-27T07:17:45.000Z,3.2
2023-01-27T07:19:01.000Z,2.9
2023-01-27T07:20:17.000Z,2.7
2023-01-27T07:22:50.000Z,2.5
2023-01-27T07:24:06.000Z,3.4
2023-01-27T07:25:21.000Z,3.4
2023-01-27T07:26:36.000Z,5.6
2023-01-27T07:27:53.000Z,3.8
2023-01-27T07:30:25.000Z,2.6
2023-01-27T07:31:41.000Z,3.1
2023-01-27T07:32:57.000Z,2.3
2023-01-27T07:34:13.000Z,5.5
2023-01-27T07:35:28.000Z,4.2
2023-01-27T07:36:44.000Z,6.2
2023-01-27T07:38:00.000Z,2.9
2023-01-27T07:40:33.000Z,4.4
2023-01-27T07:43:05.000Z,5.4
2023-01-27T07:44:21.000Z,3.6
2023-01-27T07:45:37.000Z,3.5
2023-01-27T07:46:54.000Z,4.5
2023-01-27T07:48:10.000Z,3.4
2023-01-27T07:49:26.000Z,2.7
2023-01-27T07:50:42.000Z,4
2023-01-27T07:51:57.000Z,3.5
2023-01-27T07:53:13.000Z,2.5
2023-01-27T07:54:29.000Z,2.8
2023-01-27T07:55:45.000Z,4.1
2023-01-27T07:57:01.000Z,2.9
2023-01-27T07:58:17.000Z,3.4
2023-01-27T07:59:34.000Z,3.5
2023-01-27T08:00:50.000Z,6.1
2023-01-27T08:02:06.000Z,2.8
2023-01-27T08:03:22.000Z,3
2023-01-27T08:04:38.000Z,4.1
2023-01-27T08:05:54.000Z,3.7
2023-01-27T08:08:25.000Z,3.6
2023-01-27T08:10:57.000Z,2.3
2023-01-27T08:12:13.000Z,4
2023-01-27T08:13:30.000Z,4.2
2023-01-27T08:14:46.000Z,2.5
2023-01-27T08:16:02.000Z,2.5
2023-01-27T08:17:18.000Z,2.9
2023-01-27T08:18:34.000Z,3.1
2023-01-27T08:21:07.000Z,3.9
2023-01-27T08:22:23.000Z,2.8
2023-01-27T08:23:38.000Z,2.7
2023-01-27T08:24:53.000Z,3.1
2023-01-27T08:26:10.000Z,3.2
2023-01-27T08:27:26.000Z,3
2023-01-27T08:28:42.000Z,3.2
2023-01-27T08:29:58.000Z,3.5
2023-01-27T08:31:14.000Z,2.9
2023-01-27T08:32:31.000Z,3.6
2023-01-27T08:33:47.000Z,2.8
2023-01-27T08:35:03.000Z,3.1
2023-01-27T08:36:19.000Z,2.5
2023-01-27T08:37:34.000Z,3.5
2023-01-27T08:38:50.000Z,2.2
2023-01-27T08:40:06.000Z,2.7
2023-01-27T08:41:22.000Z,4.1
2023-01-27T08:42:38.000Z,4.6
2023-01-27T08:43:54.000Z,5.3
2023-01-27T08:46:27.000Z,2.5
2023-01-27T08:47:43.000Z,3.3
2023-01-27T08:48:59.000Z,3.3
2023-01-27T08:50:15.000Z,2.5
2023-01-27T08:51:32.000Z,3.4
2023-01-27T08:52:48.000Z,3
2023-01-27T08:55:20.000Z,3.9
2023-01-27T08:56:35.000Z,3
2023-01-27T08:59:07.000Z,3
2023-01-27T09:00:23.000Z,2.9
2023-01-27T09:01:39.000Z,2.7
2023-01-27T09:02:55.000Z,2.2
2023-01-27T09:04:12.000Z,4
2023-01-27T09:05:28.000Z,3
2023-01-27T09:06:44.000Z,3.2
2023-01-27T09:08:00.000Z,3.1
2023-01-27T09:09:16.000Z,3.6
2023-01-27T09:11:49.000Z,2.6
2023-01-27T09:13:05.000Z,3.6
2023-01-27T09:14:21.000Z,3.2
2023-01-27T09:15:36.000Z,4.2
2023-01-27T09:16:53.000Z,2.7
2023-01-27T09:18:09.000Z,3.1
2023-01-27T09:19:25.000Z,3
2023-01-27T09:20:41.000Z,3
2023-01-27T09:21:57.000Z,3.3
2023-01-27T09:24:30.000Z,1.8
2023-01-27T09:25:46.000Z,3.3
2023-01-27T09:27:02.000Z,2.9
2023-01-27T09:28:18.000Z,2.1
2023-01-27T09:29:34.000Z,2.2
2023-01-27T09:30:51.000Z,1.9
2023-01-27T09:32:06.000Z,6.8
2023-01-27T09:33:22.000Z,3.1
2023-01-27T09:34:38.000Z,6
2023-01-27T09:37:11.000Z,2.8
2023-01-27T09:38:26.000Z,2.9
2023-01-27T09:39:41.000Z,2.3
2023-01-27T09:40:57.000Z,7.3
2023-01-27T09:42:13.000Z,2.9
2023-01-27T09:43:30.000Z,1.8
2023-01-27T09:44:46.000Z,2.3
2023-01-27T09:46:02.000Z,1.9
2023-01-27T09:47:18.000Z,1.7
2023-01-27T09:49:51.000Z,2
2023-01-27T09:51:07.000Z,2.6
2023-01-27T09:52:23.000Z,3
2023-01-27T09:53:39.000Z,2.6
2023-01-27T09:54:55.000Z,1.5
2023-01-27T09:56:11.000Z,3.1
2023-01-27T09:57:27.000Z,3.4
2023-01-27T09:58:43.000Z,2.1
2023-01-27T10:01:15.000Z,1.1
2023-01-27T10:02:32.000Z,1.7
2023-01-27T10:03:48.000Z,2.1
2023-01-27T10:05:04.000Z,1
2023-01-27T10:06:20.000Z,1.8
2023-01-27T10:07:36.000Z,1.2
2023-01-27T10:08:53.000Z,1.3
2023-01-27T10:10:08.000Z,1.5
2023-01-27T10:11:23.000Z,1.5
2023-01-27T10:12:39.000Z,1.9
2023-01-27T10:13:54.000Z,2.4
2023-01-27T10:15:10.000Z,3.6
2023-01-27T10:16:26.000Z,1.1
2023-01-27T10:17:42.000Z,1.1
2023-01-27T10:18:58.000Z,1.3
2023-01-27T10:20:14.000Z,1.1
2023-01-27T10:21:31.000Z,1.2
2023-01-27T10:22:47.000Z,1.3
2023-01-27T10:24:03.000Z,1.8
2023-01-27T10:25:19.000Z,1.4
2023-01-27T10:26:35.000Z,1.6
2023-01-27T10:27:51.000Z,2.2
2023-01-27T10:29:06.000Z,3.4
2023-01-27T10:30:22.000Z,1.4
2023-01-27T10:31:38.000Z,1.4
2023-01-27T10:32:54.000Z,1.2
2023-01-27T10:34:11.000Z,1.8
2023-01-27T10:35:27.000Z,1.8
2023-01-27T10:36:43.000Z,1.3
2023-01-27T10:37:59.000Z,1.3
2023-01-27T10:39:15.000Z,1.1
2023-01-27T10:40:32.000Z,0.9
2023-01-27T10:41:47.000Z,1.1
2023-01-27T10:43:02.000Z,1.5
2023-01-27T10:44:18.000Z,1.4
2023-01-27T10:45:34.000Z,1.3
2023-01-27T10:46:51.000Z,1
2023-01-27T10:48:07.000Z,1.9
2023-01-27T10:49:23.000Z,1.2
2023-01-27T10:50:39.000Z,1.7
2023-01-27T10:51:55.000Z,1.9
2023-01-27T10:53:12.000Z,1.6
2023-01-27T10:54:28.000Z,1.8
2023-01-27T10:55:44.000Z,1.4
2023-01-27T10:57:00.000Z,1.3
2023-01-27T10:58:16.000Z,1.5
2023-01-27T10:59:32.000Z,1.5
2023-01-27T11:00:48.000Z,1.6
2023-01-27T11:02:04.000Z,1.5
2023-01-27T11:03:20.000Z,2
2023-01-27T11:04:36.000Z,1.8
2023-01-27T11:07:09.000Z,3.3
2023-01-27T11:08:25.000Z,1.5
2023-01-27T11:09:40.000Z,1.8
2023-01-27T11:10:55.000Z,2.7
2023-01-27T11:12:12.000Z,1.4
2023-01-27T11:13:27.000Z,1.6
2023-01-27T11:14:42.000Z,1.4
2023-01-27T11:15:58.000Z,1.5
2023-01-27T11:18:31.000Z,1.7
2023-01-27T11:19:47.000Z,3.8
2023-01-27T11:21:03.000Z,3.1
2023-01-27T11:22:19.000Z,3.1
2023-01-27T11:23:35.000Z,2.6
2023-01-27T11:24:52.000Z,2.3
2023-01-27T11:26:08.000Z,2.2
2023-01-27T11:27:24.000Z,2.7
2023-01-27T11:28:40.000Z,2.3
2023-01-27T11:29:56.000Z,3.9
2023-01-27T11:31:12.000Z,2.1
2023-01-27T11:32:28.000Z,2
2023-01-27T11:33:44.000Z,2
2023-01-27T11:35:00.000Z,2
2023-01-27T11:36:16.000Z,2.1
2023-01-27T11:37:33.000Z,2
2023-01-27T11:38:49.000Z,1.6
2023-01-27T11:40:05.000Z,1.4
2023-01-27T11:41:20.000Z,1.8
2023-01-27T11:43:52.000Z,2.2
2023-01-27T11:45:07.000Z,1.3
2023-01-27T11:46:22.000Z,1.7
2023-01-27T11:47:38.000Z,1.1
2023-01-27T11:50:11.000Z,2.9
2023-01-27T11:51:26.000Z,2.6
2023-01-27T11:52:42.000Z,2.2
2023-01-27T11:53:58.000Z,8.5
2023-01-27T11:55:14.000Z,9.5
2023-01-27T11:56:31.000Z,11.4
2023-01-27T12:00:19.000Z,53
2023-01-27T12:01:35.000Z,18.7
2023-01-27T12:02:51.000Z,2.8
2023-01-27T12:04:06.000Z,1.9
2023-01-27T12:05:22.000Z,2.6
2023-01-27T12:06:38.000Z,3.1
2023-01-27T12:07:54.000Z,3.5
2023-01-27T12:09:11.000Z,4.7
2023-01-27T12:11:43.000Z,1.7
2023-01-27T12:12:59.000Z,2
2023-01-27T12:14:15.000Z,1.4
2023-01-27T12:15:32.000Z,3
2023-01-27T12:16:48.000Z,1.8
2023-01-27T12:19:20.000Z,1.3
2023-01-27T12:21:52.000Z,1.3
2023-01-27T12:23:08.000Z,2.1
2023-01-27T12:24:23.000Z,1
2023-01-27T12:25:38.000Z,2
2023-01-27T12:26:54.000Z,3.4
2023-01-27T12:28:11.000Z,8.5
2023-01-27T12:29:27.000Z,1.7
2023-01-27T12:30:43.000Z,11.5
2023-01-27T12:31:59.000Z,9.3
2023-01-27T12:33:15.000Z,4.6
2023-01-27T12:34:32.000Z,2.2
2023-01-27T12:35:48.000Z,6.4
2023-01-27T12:37:04.000Z,6.6
2023-01-27T12:38:19.000Z,3.1
2023-01-27T12:39:34.000Z,1.7
2023-01-27T12:40:51.000Z,0.9
2023-01-27T12:42:07.000Z,0.6
2023-01-27T12:43:23.000Z,1.3
2023-01-27T12:44:39.000Z,1.2
2023-01-27T12:45:55.000Z,3.2
2023-01-27T12:47:12.000Z,2.3
2023-01-27T12:48:28.000Z,0.5
2023-01-27T12:49:44.000Z,1.4
2023-01-27T12:51:00.000Z,2.9
2023-01-27T12:52:15.000Z,4.1
2023-01-27T12:53:31.000Z,4.2
2023-01-27T12:54:47.000Z,3.4
2023-01-27T12:56:03.000Z,2.1
2023-01-27T12:57:19.000Z,1.6
2023-01-27T12:59:52.000Z,1.5
2023-01-27T13:01:08.000Z,0.8
2023-01-27T13:02:24.000Z,1.7
2023-01-27T13:03:40.000Z,0.5
2023-01-27T13:04:56.000Z,1.4
2023-01-27T13:06:13.000Z,1.2
2023-01-27T13:07:29.000Z,1.7
2023-01-27T13:08:45.000Z,0.9
2023-01-27T13:10:00.000Z,1.1
2023-01-27T13:11:16.000Z,1.6
2023-01-27T13:12:33.000Z,2.5
2023-01-27T13:13:49.000Z,1.7
2023-01-27T13:15:05.000Z,1.3
2023-01-27T13:16:21.000Z,1.2
2023-01-27T13:17:37.000Z,1
2023-01-27T13:18:54.000Z,2.6
2023-01-27T13:20:09.000Z,1.5
2023-01-27T13:21:24.000Z,0.9
2023-01-27T13:22:39.000Z,9
2023-01-27T13:25:11.000Z,6
2023-01-27T13:26:27.000Z,3.6
2023-01-27T13:27:43.000Z,2.7
2023-01-27T13:28:59.000Z,2.4
2023-01-27T13:30:15.000Z,1
2023-01-27T13:31:32.000Z,1.1
2023-01-27T13:32:48.000Z,0.7
2023-01-27T13:34:04.000Z,1.1
2023-01-27T13:35:20.000Z,1
2023-01-27T13:37:53.000Z,0.9
2023-01-27T13:39:09.000Z,0.9
2023-01-27T13:40:24.000Z,0.5
2023-01-27T13:41:40.000Z,0.7
2023-01-27T13:42:56.000Z,0.3
2023-01-27T13:44:13.000Z,0.7
2023-01-27T13:45:29.000Z,1.2
2023-01-27T13:46:45.000Z,0.8
2023-01-27T13:48:01.000Z,1
2023-01-27T13:49:17.000Z,1
2023-01-27T13:50:34.000Z,0.9
2023-01-27T13:51:50.000Z,1.3
2023-01-27T13:53:05.000Z,1.8
2023-01-27T13:54:20.000Z,0.8
2023-01-27T13:55:36.000Z,1.5
2023-01-27T13:56:53.000Z,0.7
2023-01-27T13:58:08.000Z,0.9
2023-01-27T13:59:23.000Z,0.6
2023-01-27T14:00:39.000Z,0.6
2023-01-27T14:01:55.000Z,0.8
2023-01-27T14:03:12.000Z,1
2023-01-27T14:04:28.000Z,1.2
2023-01-27T14:05:44.000Z,2.2
2023-01-27T14:07:00.000Z,1.3
2023-01-27T14:08:16.000Z,1.4
2023-01-27T14:09:33.000Z,0.6
2023-01-27T14:10:49.000Z,0.7
2023-01-27T14:12:05.000Z,1.5
2023-01-27T14:13:21.000Z,2.7
2023-01-27T14:15:54.000Z,3.8
2023-01-27T14:17:09.000Z,1.4
2023-01-27T14:18:25.000Z,1.4
2023-01-27T14:20:57.000Z,1.5
2023-01-27T14:22:13.000Z,1.5
2023-01-27T14:23:28.000Z,1.1
2023-01-27T14:24:44.000Z,2.9
2023-01-27T14:26:00.000Z,0.9
2023-01-27T14:28:33.000Z,4.9
2023-01-27T14:29:49.000Z,14.2
2023-01-27T14:31:05.000Z,9.9
2023-01-27T14:32:21.000Z,10.1
2023-01-27T14:33:37.000Z,10.4
2023-01-27T14:34:54.000Z,13.9
2023-01-27T14:36:10.000Z,6.5
2023-01-27T14:37:26.000Z,3.3
2023-01-27T14:38:42.000Z,2.7
2023-01-27T14:39:57.000Z,1.3
2023-01-27T14:41:14.000Z,2.7
2023-01-27T14:42:30.000Z,3.1
2023-01-27T14:43:46.000Z,1.7
2023-01-27T14:45:02.000Z,5
2023-01-27T14:46:18.000Z,5.3
2023-01-27T14:47:35.000Z,4.4
2023-01-27T14:48:51.000Z,3.1
2023-01-27T14:50:07.000Z,1.9
2023-01-27T14:51:22.000Z,1.3
2023-01-27T14:53:54.000Z,1.6
2023-01-27T14:55:10.000Z,2.2
2023-01-27T14:56:26.000Z,3
2023-01-27T14:57:41.000Z,2.5
2023-01-27T14:58:56.000Z,3
2023-01-27T15:01:29.000Z,2.7
2023-01-27T15:02:45.000Z,0.7
2023-01-27T15:04:01.000Z,1.6
2023-01-27T15:06:34.000Z,1.2
2023-01-27T15:07:50.000Z,5.1
2023-01-27T15:09:06.000Z,4
2023-01-27T15:10:22.000Z,2.9
2023-01-27T15:11:38.000Z,5.3
2023-01-27T15:12:55.000Z,3.1
2023-01-27T15:14:11.000Z,2.8
2023-01-27T15:15:26.000Z,1.2
2023-01-27T15:16:41.000Z,1.2
2023-01-27T15:17:57.000Z,2.6
2023-01-27T15:19:14.000Z,1.1
2023-01-27T15:20:30.000Z,1.4
2023-01-27T15:21:46.000Z,0.7
2023-01-27T15:23:02.000Z,2.4
2023-01-27T15:24:18.000Z,17.3
2023-01-27T15:25:35.000Z,27.7
2023-01-27T15:26:51.000Z,16.2
2023-01-27T15:28:07.000Z,11.3
2023-01-27T15:29:22.000Z,8.2
2023-01-27T15:31:54.000Z,2.5
2023-01-27T15:33:10.000Z,1.4
2023-01-27T15:34:26.000Z,0.7
2023-01-27T15:35:42.000Z,1.8
2023-01-27T15:36:58.000Z,1.7
2023-01-27T15:38:15.000Z,1.8
2023-01-27T15:39:31.000Z,1.1
2023-01-27T15:40:47.000Z,2
2023-01-27T15:42:03.000Z,1.6
2023-01-27T15:44:36.000Z,1.5
2023-01-27T15:45:52.000Z,2.3
2023-01-27T15:48:23.000Z,2.3
2023-01-27T15:49:38.000Z,2.6
2023-01-27T15:50:55.000Z,3
2023-01-27T15:52:10.000Z,2.5
2023-01-27T15:53:26.000Z,1.4
2023-01-27T15:54:42.000Z,1.1
2023-01-27T15:55:58.000Z,0.8
2023-01-27T15:57:15.000Z,1.6
2023-01-27T15:58:31.000Z,1.4
2023-01-27T15:59:47.000Z,1.1
2023-01-27T16:01:03.000Z,0.8
2023-01-27T16:02:19.000Z,1
2023-01-27T16:03:35.000Z,0.8
2023-01-27T16:04:50.000Z,1.9
2023-01-27T16:06:05.000Z,1.3
2023-01-27T16:07:21.000Z,1.4
2023-01-27T16:09:54.000Z,0.8
2023-01-27T16:11:10.000Z,0.6
2023-01-27T16:12:26.000Z,2.1
2023-01-27T16:13:42.000Z,1.8
2023-01-27T16:14:58.000Z,1
2023-01-27T16:16:15.000Z,0.8
2023-01-27T16:17:31.000Z,2
2023-01-27T16:18:47.000Z,1.9
2023-01-27T16:20:03.000Z,1.4
2023-01-27T16:21:19.000Z,3.2
2023-01-27T16:22:35.000Z,2.1
2023-01-27T16:23:51.000Z,4.8
2023-01-27T16:25:07.000Z,1.3
2023-01-27T16:26:23.000Z,1.3
2023-01-27T16:27:39.000Z,0.9
2023-01-27T16:28:56.000Z,1.4
2023-01-27T16:30:12.000Z,0.9
2023-01-27T16:31:27.000Z,1.5
2023-01-27T16:32:42.000Z,1.4
2023-01-27T16:35:14.000Z,2.6
2023-01-27T16:36:29.000Z,1.4
2023-01-27T16:37:44.000Z,1.7
2023-01-27T16:39:00.000Z,2.4
2023-01-27T16:40:16.000Z,1.1
2023-01-27T16:41:33.000Z,1
2023-01-27T16:42:49.000Z,1
2023-01-27T16:44:05.000Z,2.4
2023-01-27T16:45:21.000Z,1
2023-01-27T16:47:54.000Z,1.1
2023-01-27T16:49:10.000Z,1.4
2023-01-27T16:50:26.000Z,1.8
2023-01-27T16:51:42.000Z,2.7
2023-01-27T16:52:58.000Z,0.8
2023-01-27T16:54:14.000Z,1
2023-01-27T16:55:30.000Z,3.1
2023-01-27T16:56:46.000Z,1.4
2023-01-27T16:58:02.000Z,0.9
2023-01-27T16:59:18.000Z,2.4
2023-01-27T17:00:35.000Z,1.3
2023-01-27T17:01:51.000Z,1.8
2023-01-27T17:03:07.000Z,1.9
2023-01-27T17:04:22.000Z,1.1
2023-01-27T17:05:37.000Z,2
2023-01-27T17:06:54.000Z,1.4
2023-01-27T17:08:09.000Z,2
2023-01-27T17:09:25.000Z,3.3
2023-01-27T17:10:41.000Z,1.3
2023-01-27T17:13:13.000Z,2.7
2023-01-27T17:14:29.000Z,2.5
2023-01-27T17:15:45.000Z,1.1
2023-01-27T17:17:01.000Z,2.1
2023-01-27T17:18:17.000Z,1.3
2023-01-27T17:19:34.000Z,2.6
2023-01-27T17:20:50.000Z,2.5
2023-01-27T17:22:06.000Z,1.4
2023-01-27T17:23:22.000Z,2.8
2023-01-27T17:24:38.000Z,1.5
2023-01-27T17:25:55.000Z,3
2023-01-27T17:27:11.000Z,4.1
2023-01-27T17:28:26.000Z,3.4
2023-01-27T17:29:42.000Z,4.5
2023-01-27T17:30:58.000Z,7.1
2023-01-27T17:32:15.000Z,5.6
2023-01-27T17:33:31.000Z,12.7
2023-01-27T17:34:47.000Z,3.3
2023-01-27T17:36:02.000Z,7.4
2023-01-27T17:37:18.000Z,7.4
2023-01-27T17:38:34.000Z,20
2023-01-27T17:39:50.000Z,6.7
2023-01-27T17:41:06.000Z,9.2
2023-01-27T17:42:22.000Z,8.5
2023-01-27T17:43:37.000Z,3.6
2023-01-27T17:44:53.000Z,5.5
2023-01-27T17:46:09.000Z,6.7
2023-01-27T17:47:25.000Z,8.9
2023-01-27T17:48:41.000Z,7.3
2023-01-27T17:51:14.000Z,6.6
2023-01-27T17:52:30.000Z,5.9
2023-01-27T17:53:46.000Z,5.3
2023-01-27T17:55:02.000Z,9.1
2023-01-27T17:56:18.000Z,4.4
2023-01-27T17:57:35.000Z,5.3
2023-01-27T17:58:51.000Z,4.5
2023-01-27T18:00:07.000Z,3.3
2023-01-27T18:01:22.000Z,6.6
2023-01-27T18:02:38.000Z,4.1
2023-01-27T18:03:55.000Z,7.1
2023-01-27T18:05:11.000Z,10.4
2023-01-27T18:06:27.000Z,10.6
2023-01-27T18:07:43.000Z,12.1
2023-01-27T18:08:59.000Z,10.7
2023-01-27T18:10:16.000Z,6.5
2023-01-27T18:11:32.000Z,4.9
2023-01-27T18:12:48.000Z,5.1
2023-01-27T18:14:03.000Z,4.8
2023-01-27T18:15:18.000Z,3.2
2023-01-27T18:16:35.000Z,3.1
2023-01-27T18:17:51.000Z,1.6
2023-01-27T18:19:06.000Z,3.6
2023-01-27T18:20:22.000Z,1.8
2023-01-27T18:22:54.000Z,3.8
2023-01-27T18:24:10.000Z,3.7
2023-01-27T18:25:26.000Z,5.6
2023-01-27T18:26:42.000Z,5.5
2023-01-27T18:27:58.000Z,10.1
2023-01-27T18:29:15.000Z,6.2
2023-01-27T18:30:31.000Z,4.2
2023-01-27T18:31:47.000Z,4.9
2023-01-27T18:33:03.000Z,2.7
2023-01-27T18:34:19.000Z,3.4
2023-01-27T18:35:36.000Z,1.8
2023-01-27T18:36:52.000Z,1.7
2023-01-27T18:38:07.000Z,1.8
2023-01-27T18:39:23.000Z,1.7
2023-01-27T18:40:39.000Z,2.2
2023-01-27T18:41:56.000Z,2.7
2023-01-27T18:43:12.000Z,2.6
2023-01-27T18:44:28.000Z,4.2
2023-01-27T18:45:44.000Z,3.9
2023-01-27T18:46:59.000Z,4.9
2023-01-27T18:48:15.000Z,4.3
2023-01-27T18:49:30.000Z,4.2
2023-01-27T18:50:45.000Z,4
2023-01-27T18:52:01.000Z,3.2
2023-01-27T18:54:34.000Z,5.9
2023-01-27T18:55:50.000Z,2.1